Oregonia, Ohio
Current Conditions -  °F | °C
As of 2:53 PM on Monday 22 Dec 2014 (Local Time) from KMGY Reporting Station
Clear Clear  
Wind Chill: 44°   Ceiling: Unl
Heat Index: 47°   Visibility: 10mi
Dew Point: 37°   Wind: 7mph
Humidity: 68%   Direction: 100°E
Pressure: 29.86"   Gusts: NA
Location:  39.45°N, 84.1°W
Report Text: KMGY 221953Z AUTO 10006KT 10SM CLR 08/03 A2986 RMK AO2 SLP116 T00830028
Loading
Personal Weather Stations






























Interactive Weather Map New forecast layout! Learn more

10-Day Weather Forecast

Advertisements
Track Severe Weather on mobile